sensor_id;sensor_type;location;lat;lon;timestamp;P1;durP1;ratioP1;P2;durP2;ratioP2
23608;SDS011;11982;50.810;4.442;2023-05-16T00:02:15;21.58;;;3.65;;
23608;SDS011;11982;50.810;4.442;2023-05-16T00:04:42;27.33;;;3.92;;
23608;SDS011;11982;50.810;4.442;2023-05-16T00:07:07;32.55;;;4.72;;
23608;SDS011;11982;50.810;4.442;2023-05-16T00:09:33;28.25;;;4.82;;
23608;SDS011;11982;50.810;4.442;2023-05-16T00:11:59;25.67;;;4.07;;
23608;SDS011;11982;50.810;4.442;2023-05-16T00:14:24;18.55;;;3.60;;
23608;SDS011;11982;50.810;4.442;2023-05-16T00:16:53;30.45;;;3.85;;
23608;SDS011;11982;50.810;4.442;2023-05-16T00:19:22;19.23;;;3.50;;
23608;SDS011;11982;50.810;4.442;2023-05-16T00:21:48;21.75;;;4.18;;
23608;SDS011;11982;50.810;4.442;2023-05-16T00:24:13;33.65;;;4.18;;
23608;SDS011;11982;50.810;4.442;2023-05-16T00:26:39;20.48;;;4.00;;
23608;SDS011;11982;50.810;4.442;2023-05-16T00:29:05;20.40;;;3.35;;
23608;SDS011;11982;50.810;4.442;2023-05-16T00:31:31;21.83;;;4.47;;
23608;SDS011;11982;50.810;4.442;2023-05-16T00:33:57;33.45;;;4.35;;
23608;SDS011;11982;50.810;4.442;2023-05-16T00:36:22;27.15;;;4.47;;
23608;SDS011;11982;50.810;4.442;2023-05-16T00:38:48;31.33;;;4.90;;
23608;SDS011;11982;50.810;4.442;2023-05-16T00:41:15;23.13;;;4.28;;
23608;SDS011;11982;50.810;4.442;2023-05-16T00:43:41;35.70;;;4.65;;
23608;SDS011;11982;50.810;4.442;2023-05-16T00:46:06;21.42;;;3.78;;
23608;SDS011;11982;50.810;4.442;2023-05-16T00:48:32;26.90;;;4.18;;
23608;SDS011;11982;50.810;4.442;2023-05-16T00:50:58;21.67;;;3.45;;
23608;SDS011;11982;50.810;4.442;2023-05-16T00:53:25;27.33;;;3.38;;
23608;SDS011;11982;50.810;4.442;2023-05-16T00:55:51;26.08;;;3.47;;
23608;SDS011;11982;50.810;4.442;2023-05-16T00:58:17;37.80;;;5.65;;
23608;SDS011;11982;50.810;4.442;2023-05-16T01:00:43;27.65;;;4.05;;
23608;SDS011;11982;50.810;4.442;2023-05-16T01:03:11;26.80;;;3.97;;
23608;SDS011;11982;50.810;4.442;2023-05-16T01:05:37;36.92;;;4.25;;
23608;SDS011;11982;50.810;4.442;2023-05-16T01:08:03;33.65;;;4.13;;
23608;SDS011;11982;50.810;4.442;2023-05-16T01:10:31;40.28;;;4.25;;
23608;SDS011;11982;50.810;4.442;2023-05-16T01:15:43;29.52;;;4.47;;
23608;SDS011;11982;50.810;4.442;2023-05-16T01:21:08;26.02;;;3.97;;
23608;SDS011;11982;50.810;4.442;2023-05-16T01:26:21;28.90;;;3.75;;
23608;SDS011;11982;50.810;4.442;2023-05-16T01:28:50;30.65;;;4.22;;
23608;SDS011;11982;50.810;4.442;2023-05-16T01:31:17;34.17;;;4.38;;
23608;SDS011;11982;50.810;4.442;2023-05-16T01:33:44;35.78;;;4.28;;
23608;SDS011;11982;50.810;4.442;2023-05-16T01:38:40;34.20;;;4.63;;
23608;SDS011;11982;50.810;4.442;2023-05-16T01:44:30;31.30;;;3.88;;
23608;SDS011;11982;50.810;4.442;2023-05-16T01:47:00;24.00;;;3.80;;
23608;SDS011;11982;50.810;4.442;2023-05-16T01:52:17;37.92;;;5.40;;
23608;SDS011;11982;50.810;4.442;2023-05-16T01:54:59;31.73;;;4.33;;
23608;SDS011;11982;50.810;4.442;2023-05-16T01:57:27;27.25;;;4.38;;
23608;SDS011;11982;50.810;4.442;2023-05-16T01:59:54;27.05;;;4.68;;
23608;SDS011;11982;50.810;4.442;2023-05-16T02:02:22;35.53;;;3.97;;
23608;SDS011;11982;50.810;4.442;2023-05-16T02:04:47;29.65;;;4.13;;
23608;SDS011;11982;50.810;4.442;2023-05-16T02:07:13;31.50;;;4.07;;
23608;SDS011;11982;50.810;4.442;2023-05-16T02:09:39;23.77;;;4.25;;
23608;SDS011;11982;50.810;4.442;2023-05-16T02:12:05;26.08;;;3.92;;
23608;SDS011;11982;50.810;4.442;2023-05-16T02:14:31;27.83;;;3.55;;
23608;SDS011;11982;50.810;4.442;2023-05-16T02:16:56;37.90;;;5.07;;
23608;SDS011;11982;50.810;4.442;2023-05-16T02:19:22;36.42;;;4.53;;
23608;SDS011;11982;50.810;4.442;2023-05-16T02:21:48;35.55;;;4.25;;
23608;SDS011;11982;50.810;4.442;2023-05-16T02:24:15;30.98;;;4.18;;
23608;SDS011;11982;50.810;4.442;2023-05-16T02:26:40;21.48;;;3.63;;
23608;SDS011;11982;50.810;4.442;2023-05-16T02:29:06;26.83;;;4.72;;
23608;SDS011;11982;50.810;4.442;2023-05-16T02:31:33;28.38;;;5.20;;
23608;SDS011;11982;50.810;4.442;2023-05-16T02:33:59;32.10;;;4.90;;
23608;SDS011;11982;50.810;4.442;2023-05-16T02:36:25;32.75;;;4.63;;
23608;SDS011;11982;50.810;4.442;2023-05-16T02:38:51;28.98;;;4.25;;
23608;SDS011;11982;50.810;4.442;2023-05-16T02:41:17;31.52;;;4.60;;
23608;SDS011;11982;50.810;4.442;2023-05-16T02:43:43;33.58;;;4.88;;
23608;SDS011;11982;50.810;4.442;2023-05-16T02:46:21;17.27;;;3.80;;
23608;SDS011;11982;50.810;4.442;2023-05-16T02:48:49;29.08;;;4.38;;
23608;SDS011;11982;50.810;4.442;2023-05-16T02:51:15;34.15;;;4.47;;
23608;SDS011;11982;50.810;4.442;2023-05-16T02:53:41;26.05;;;4.18;;
23608;SDS011;11982;50.810;4.442;2023-05-16T02:56:07;35.17;;;3.97;;
23608;SDS011;11982;50.810;4.442;2023-05-16T02:58:34;24.25;;;4.20;;
23608;SDS011;11982;50.810;4.442;2023-05-16T03:00:59;31.50;;;4.90;;
23608;SDS011;11982;50.810;4.442;2023-05-16T03:03:25;36.78;;;5.25;;
23608;SDS011;11982;50.810;4.442;2023-05-16T03:05:51;24.05;;;4.03;;
23608;SDS011;11982;50.810;4.442;2023-05-16T03:08:17;28.67;;;4.50;;
23608;SDS011;11982;50.810;4.442;2023-05-16T03:10:42;25.77;;;4.35;;
23608;SDS011;11982;50.810;4.442;2023-05-16T03:13:08;21.67;;;4.38;;
23608;SDS011;11982;50.810;4.442;2023-05-16T03:15:34;35.30;;;4.50;;
23608;SDS011;11982;50.810;4.442;2023-05-16T03:17:59;35.83;;;5.20;;
23608;SDS011;11982;50.810;4.442;2023-05-16T03:20:25;40.55;;;5.38;;
23608;SDS011;11982;50.810;4.442;2023-05-16T03:22:51;26.70;;;4.10;;
23608;SDS011;11982;50.810;4.442;2023-05-16T03:25:16;30.77;;;4.80;;
23608;SDS011;11982;50.810;4.442;2023-05-16T03:27:42;38.63;;;4.53;;
23608;SDS011;11982;50.810;4.442;2023-05-16T03:30:08;30.65;;;4.78;;
23608;SDS011;11982;50.810;4.442;2023-05-16T03:32:36;36.28;;;5.78;;
23608;SDS011;11982;50.810;4.442;2023-05-16T03:35:02;22.10;;;4.10;;
23608;SDS011;11982;50.810;4.442;2023-05-16T03:37:28;21.13;;;4.70;;
23608;SDS011;11982;50.810;4.442;2023-05-16T03:39:54;30.60;;;5.03;;
23608;SDS011;11982;50.810;4.442;2023-05-16T03:42:20;28.38;;;4.88;;
23608;SDS011;11982;50.810;4.442;2023-05-16T03:44:45;38.50;;;4.85;;
23608;SDS011;11982;50.810;4.442;2023-05-16T03:47:11;32.38;;;5.07;;
23608;SDS011;11982;50.810;4.442;2023-05-16T03:49:37;32.22;;;4.88;;
23608;SDS011;11982;50.810;4.442;2023-05-16T03:52:03;28.50;;;5.47;;
23608;SDS011;11982;50.810;4.442;2023-05-16T03:54:29;27.67;;;4.75;;
23608;SDS011;11982;50.810;4.442;2023-05-16T03:56:55;33.70;;;5.18;;
23608;SDS011;11982;50.810;4.442;2023-05-16T03:59:20;17.40;;;4.22;;
23608;SDS011;11982;50.810;4.442;2023-05-16T04:01:46;27.67;;;5.18;;
23608;SDS011;11982;50.810;4.442;2023-05-16T04:04:13;25.42;;;5.13;;
23608;SDS011;11982;50.810;4.442;2023-05-16T04:06:38;26.25;;;4.72;;
23608;SDS011;11982;50.810;4.442;2023-05-16T04:09:04;30.67;;;5.00;;
23608;SDS011;11982;50.810;4.442;2023-05-16T04:11:33;27.83;;;4.70;;
23608;SDS011;11982;50.810;4.442;2023-05-16T04:14:00;26.90;;;4.70;;
23608;SDS011;11982;50.810;4.442;2023-05-16T04:16:26;25.27;;;4.63;;
23608;SDS011;11982;50.810;4.442;2023-05-16T04:18:51;24.33;;;4.65;;
23608;SDS011;11982;50.810;4.442;2023-05-16T04:21:17;20.92;;;5.85;;
23608;SDS011;11982;50.810;4.442;2023-05-16T04:23:43;20.90;;;5.13;;
23608;SDS011;11982;50.810;4.442;2023-05-16T04:26:08;25.02;;;5.00;;
23608;SDS011;11982;50.810;4.442;2023-05-16T04:28:34;29.77;;;5.30;;
23608;SDS011;11982;50.810;4.442;2023-05-16T04:31:00;24.50;;;4.95;;
23608;SDS011;11982;50.810;4.442;2023-05-16T04:33:26;18.63;;;5.32;;
23608;SDS011;11982;50.810;4.442;2023-05-16T04:35:52;32.35;;;5.45;;
23608;SDS011;11982;50.810;4.442;2023-05-16T04:38:18;38.72;;;6.28;;
23608;SDS011;11982;50.810;4.442;2023-05-16T04:40:44;33.47;;;6.13;;
23608;SDS011;11982;50.810;4.442;2023-05-16T04:43:10;37.63;;;6.53;;
23608;SDS011;11982;50.810;4.442;2023-05-16T04:45:36;27.85;;;5.63;;
23608;SDS011;11982;50.810;4.442;2023-05-16T04:48:01;22.80;;;5.90;;
23608;SDS011;11982;50.810;4.442;2023-05-16T04:50:27;32.47;;;7.07;;
23608;SDS011;11982;50.810;4.442;2023-05-16T04:52:53;27.58;;;6.30;;
23608;SDS011;11982;50.810;4.442;2023-05-16T04:55:19;28.35;;;5.07;;
23608;SDS011;11982;50.810;4.442;2023-05-16T04:57:45;25.52;;;5.30;;
23608;SDS011;11982;50.810;4.442;2023-05-16T05:00:11;34.92;;;6.45;;
23608;SDS011;11982;50.810;4.442;2023-05-16T05:02:37;28.55;;;5.18;;
23608;SDS011;11982;50.810;4.442;2023-05-16T05:05:04;23.55;;;4.78;;
23608;SDS011;11982;50.810;4.442;2023-05-16T05:07:31;25.80;;;5.53;;
23608;SDS011;11982;50.810;4.442;2023-05-16T05:09:57;25.33;;;4.55;;
23608;SDS011;11982;50.810;4.442;2023-05-16T05:12:22;28.27;;;4.10;;
23608;SDS011;11982;50.810;4.442;2023-05-16T05:14:49;26.67;;;4.85;;
23608;SDS011;11982;50.810;4.442;2023-05-16T05:17:15;27.42;;;4.47;;
23608;SDS011;11982;50.810;4.442;2023-05-16T05:19:41;20.67;;;4.43;;
23608;SDS011;11982;50.810;4.442;2023-05-16T05:22:07;28.23;;;3.67;;
23608;SDS011;11982;50.810;4.442;2023-05-16T05:24:33;29.90;;;5.00;;
23608;SDS011;11982;50.810;4.442;2023-05-16T05:26:59;27.20;;;4.47;;
23608;SDS011;11982;50.810;4.442;2023-05-16T05:29:26;19.40;;;3.38;;
23608;SDS011;11982;50.810;4.442;2023-05-16T05:31:51;26.80;;;4.30;;
23608;SDS011;11982;50.810;4.442;2023-05-16T05:34:17;23.10;;;4.10;;
23608;SDS011;11982;50.810;4.442;2023-05-16T05:36:42;35.25;;;4.65;;
23608;SDS011;11982;50.810;4.442;2023-05-16T05:39:08;31.48;;;4.50;;
23608;SDS011;11982;50.810;4.442;2023-05-16T05:41:34;15.82;;;3.28;;
23608;SDS011;11982;50.810;4.442;2023-05-16T05:44:01;23.10;;;4.78;;
23608;SDS011;11982;50.810;4.442;2023-05-16T05:46:27;24.70;;;3.67;;
23608;SDS011;11982;50.810;4.442;2023-05-16T05:48:52;25.70;;;4.40;;
23608;SDS011;11982;50.810;4.442;2023-05-16T05:51:18;21.67;;;3.97;;
23608;SDS011;11982;50.810;4.442;2023-05-16T05:53:44;23.25;;;4.35;;
23608;SDS011;11982;50.810;4.442;2023-05-16T05:56:10;18.60;;;3.42;;
23608;SDS011;11982;50.810;4.442;2023-05-16T05:58:37;24.48;;;3.67;;
23608;SDS011;11982;50.810;4.442;2023-05-16T06:01:03;20.10;;;4.25;;
23608;SDS011;11982;50.810;4.442;2023-05-16T06:03:29;16.40;;;3.45;;
23608;SDS011;11982;50.810;4.442;2023-05-16T06:05:54;23.77;;;4.28;;
23608;SDS011;11982;50.810;4.442;2023-05-16T06:08:20;22.05;;;3.63;;
23608;SDS011;11982;50.810;4.442;2023-05-16T06:10:46;17.63;;;3.33;;
23608;SDS011;11982;50.810;4.442;2023-05-16T06:13:12;17.83;;;3.50;;
23608;SDS011;11982;50.810;4.442;2023-05-16T06:15:37;21.55;;;3.47;;
23608;SDS011;11982;50.810;4.442;2023-05-16T06:18:03;9.18;;;2.25;;
23608;SDS011;11982;50.810;4.442;2023-05-16T06:20:29;25.30;;;3.58;;
23608;SDS011;11982;50.810;4.442;2023-05-16T06:22:54;17.90;;;2.97;;
23608;SDS011;11982;50.810;4.442;2023-05-16T06:25:20;28.10;;;3.63;;
23608;SDS011;11982;50.810;4.442;2023-05-16T06:27:46;16.13;;;2.95;;
23608;SDS011;11982;50.810;4.442;2023-05-16T06:30:11;25.02;;;3.70;;
23608;SDS011;11982;50.810;4.442;2023-05-16T06:32:37;16.92;;;2.83;;
23608;SDS011;11982;50.810;4.442;2023-05-16T06:35:05;15.02;;;2.50;;
23608;SDS011;11982;50.810;4.442;2023-05-16T06:37:32;21.75;;;3.33;;
23608;SDS011;11982;50.810;4.442;2023-05-16T06:39:58;15.02;;;3.30;;
23608;SDS011;11982;50.810;4.442;2023-05-16T06:42:23;13.15;;;2.90;;
23608;SDS011;11982;50.810;4.442;2023-05-16T06:44:49;19.10;;;3.13;;
23608;SDS011;11982;50.810;4.442;2023-05-16T06:47:15;20.48;;;3.38;;
23608;SDS011;11982;50.810;4.442;2023-05-16T06:49:40;16.40;;;2.67;;
23608;SDS011;11982;50.810;4.442;2023-05-16T06:52:06;18.25;;;2.55;;
23608;SDS011;11982;50.810;4.442;2023-05-16T06:54:32;15.05;;;2.70;;
23608;SDS011;11982;50.810;4.442;2023-05-16T06:56:58;17.75;;;2.55;;
23608;SDS011;11982;50.810;4.442;2023-05-16T06:59:23;23.75;;;3.67;;
23608;SDS011;11982;50.810;4.442;2023-05-16T07:01:49;23.15;;;3.45;;
23608;SDS011;11982;50.810;4.442;2023-05-16T07:04:15;19.02;;;3.00;;
23608;SDS011;11982;50.810;4.442;2023-05-16T07:06:40;23.45;;;3.38;;
23608;SDS011;11982;50.810;4.442;2023-05-16T07:09:06;12.48;;;2.78;;
23608;SDS011;11982;50.810;4.442;2023-05-16T07:11:32;16.35;;;2.67;;
23608;SDS011;11982;50.810;4.442;2023-05-16T07:13:57;17.52;;;3.40;;
23608;SDS011;11982;50.810;4.442;2023-05-16T07:16:23;18.45;;;2.90;;
23608;SDS011;11982;50.810;4.442;2023-05-16T07:18:52;13.18;;;2.95;;
23608;SDS011;11982;50.810;4.442;2023-05-16T07:21:18;23.55;;;4.28;;
23608;SDS011;11982;50.810;4.442;2023-05-16T07:23:43;21.08;;;3.20;;
23608;SDS011;11982;50.810;4.442;2023-05-16T07:26:09;17.25;;;3.45;;
23608;SDS011;11982;50.810;4.442;2023-05-16T07:28:35;20.38;;;3.85;;
23608;SDS011;11982;50.810;4.442;2023-05-16T07:31:01;18.55;;;3.10;;
23608;SDS011;11982;50.810;4.442;2023-05-16T07:33:26;18.38;;;2.88;;
23608;SDS011;11982;50.810;4.442;2023-05-16T07:35:52;11.68;;;2.58;;
23608;SDS011;11982;50.810;4.442;2023-05-16T07:38:19;21.33;;;3.60;;
23608;SDS011;11982;50.810;4.442;2023-05-16T07:40:45;14.15;;;2.63;;
23608;SDS011;11982;50.810;4.442;2023-05-16T07:43:11;15.15;;;2.67;;
23608;SDS011;11982;50.810;4.442;2023-05-16T07:45:37;8.63;;;2.50;;
23608;SDS011;11982;50.810;4.442;2023-05-16T07:48:03;16.05;;;2.70;;
23608;SDS011;11982;50.810;4.442;2023-05-16T07:50:28;16.00;;;3.13;;
23608;SDS011;11982;50.810;4.442;2023-05-16T07:52:54;13.95;;;2.78;;
23608;SDS011;11982;50.810;4.442;2023-05-16T07:55:20;17.17;;;2.60;;
23608;SDS011;11982;50.810;4.442;2023-05-16T07:57:46;13.30;;;2.22;;
23608;SDS011;11982;50.810;4.442;2023-05-16T08:00:13;11.50;;;2.47;;
23608;SDS011;11982;50.810;4.442;2023-05-16T08:02:39;14.82;;;2.28;;
23608;SDS011;11982;50.810;4.442;2023-05-16T08:05:05;7.72;;;2.00;;
23608;SDS011;11982;50.810;4.442;2023-05-16T08:07:31;11.30;;;2.35;;
23608;SDS011;11982;50.810;4.442;2023-05-16T08:09:57;11.90;;;2.38;;
23608;SDS011;11982;50.810;4.442;2023-05-16T08:12:23;19.85;;;2.78;;
23608;SDS011;11982;50.810;4.442;2023-05-16T08:14:49;15.65;;;3.30;;
23608;SDS011;11982;50.810;4.442;2023-05-16T08:17:14;15.27;;;2.50;;
23608;SDS011;11982;50.810;4.442;2023-05-16T08:19:40;18.77;;;2.60;;
23608;SDS011;11982;50.810;4.442;2023-05-16T08:22:06;9.10;;;2.42;;
23608;SDS011;11982;50.810;4.442;2023-05-16T08:24:33;17.27;;;3.55;;
23608;SDS011;11982;50.810;4.442;2023-05-16T08:26:59;7.90;;;1.90;;
23608;SDS011;11982;50.810;4.442;2023-05-16T08:29:25;9.93;;;1.92;;
23608;SDS011;11982;50.810;4.442;2023-05-16T08:31:51;8.93;;;2.28;;
23608;SDS011;11982;50.810;4.442;2023-05-16T08:34:17;16.50;;;1.85;;
23608;SDS011;11982;50.810;4.442;2023-05-16T08:36:42;12.10;;;2.35;;
23608;SDS011;11982;50.810;4.442;2023-05-16T08:39:08;12.65;;;2.40;;
23608;SDS011;11982;50.810;4.442;2023-05-16T08:41:37;13.68;;;2.22;;
23608;SDS011;11982;50.810;4.442;2023-05-16T08:44:03;7.60;;;2.00;;
23608;SDS011;11982;50.810;4.442;2023-05-16T08:46:29;14.32;;;2.65;;
23608;SDS011;11982;50.810;4.442;2023-05-16T08:48:57;14.05;;;2.45;;
23608;SDS011;11982;50.810;4.442;2023-05-16T08:51:24;9.38;;;1.85;;
23608;SDS011;11982;50.810;4.442;2023-05-16T08:54:09;10.82;;;2.00;;
23608;SDS011;11982;50.810;4.442;2023-05-16T08:56:40;7.97;;;1.77;;
23608;SDS011;11982;50.810;4.442;2023-05-16T08:59:06;8.15;;;1.52;;
23608;SDS011;11982;50.810;4.442;2023-05-16T09:01:32;9.18;;;1.77;;
23608;SDS011;11982;50.810;4.442;2023-05-16T09:03:58;14.18;;;2.10;;
23608;SDS011;11982;50.810;4.442;2023-05-16T09:06:27;9.48;;;1.80;;
23608;SDS011;11982;50.810;4.442;2023-05-16T09:08:53;8.50;;;2.03;;
23608;SDS011;11982;50.810;4.442;2023-05-16T09:11:19;11.50;;;2.35;;
23608;SDS011;11982;50.810;4.442;2023-05-16T09:13:45;7.57;;;1.95;;
23608;SDS011;11982;50.810;4.442;2023-05-16T09:16:13;9.80;;;2.28;;
23608;SDS011;11982;50.810;4.442;2023-05-16T09:18:42;10.85;;;2.28;;
23608;SDS011;11982;50.810;4.442;2023-05-16T09:21:09;8.27;;;2.10;;
23608;SDS011;11982;50.810;4.442;2023-05-16T09:23:36;10.98;;;2.05;;
23608;SDS011;11982;50.810;4.442;2023-05-16T09:26:02;14.52;;;2.30;;
23608;SDS011;11982;50.810;4.442;2023-05-16T09:28:31;13.00;;;1.80;;
23608;SDS011;11982;50.810;4.442;2023-05-16T09:30:56;14.88;;;2.63;;
23608;SDS011;11982;50.810;4.442;2023-05-16T09:33:26;14.50;;;2.63;;
23608;SDS011;11982;50.810;4.442;2023-05-16T09:35:54;12.20;;;1.75;;
23608;SDS011;11982;50.810;4.442;2023-05-16T09:38:21;10.65;;;1.77;;
23608;SDS011;11982;50.810;4.442;2023-05-16T09:40:46;12.25;;;1.70;;
23608;SDS011;11982;50.810;4.442;2023-05-16T09:43:15;10.48;;;2.10;;
23608;SDS011;11982;50.810;4.442;2023-05-16T09:45:44;8.10;;;1.70;;
23608;SDS011;11982;50.810;4.442;2023-05-16T09:48:11;9.93;;;2.15;;
23608;SDS011;11982;50.810;4.442;2023-05-16T09:50:39;10.43;;;1.88;;
23608;SDS011;11982;50.810;4.442;2023-05-16T09:53:11;8.68;;;1.70;;
23608;SDS011;11982;50.810;4.442;2023-05-16T09:55:37;9.65;;;2.45;;
23608;SDS011;11982;50.810;4.442;2023-05-16T09:58:03;10.25;;;2.15;;
23608;SDS011;11982;50.810;4.442;2023-05-16T10:00:30;10.82;;;1.55;;
23608;SDS011;11982;50.810;4.442;2023-05-16T10:02:57;8.80;;;1.80;;
23608;SDS011;11982;50.810;4.442;2023-05-16T10:05:25;17.17;;;2.30;;
23608;SDS011;11982;50.810;4.442;2023-05-16T10:07:54;15.82;;;2.25;;
23608;SDS011;11982;50.810;4.442;2023-05-16T10:10:21;11.50;;;2.70;;
23608;SDS011;11982;50.810;4.442;2023-05-16T10:12:48;14.27;;;2.70;;
23608;SDS011;11982;50.810;4.442;2023-05-16T10:15:15;8.70;;;1.98;;
23608;SDS011;11982;50.810;4.442;2023-05-16T10:17:42;8.98;;;2.28;;
23608;SDS011;11982;50.810;4.442;2023-05-16T10:20:14;11.15;;;2.03;;
23608;SDS011;11982;50.810;4.442;2023-05-16T10:22:43;7.07;;;1.63;;
23608;SDS011;11982;50.810;4.442;2023-05-16T10:27:55;8.13;;;2.08;;
23608;SDS011;11982;50.810;4.442;2023-05-16T10:30:22;9.25;;;2.63;;
23608;SDS011;11982;50.810;4.442;2023-05-16T10:32:47;9.85;;;2.20;;
23608;SDS011;11982;50.810;4.442;2023-05-16T10:35:15;5.97;;;1.80;;
23608;SDS011;11982;50.810;4.442;2023-05-16T10:37:41;4.53;;;1.60;;
23608;SDS011;11982;50.810;4.442;2023-05-16T10:40:08;6.65;;;1.65;;
23608;SDS011;11982;50.810;4.442;2023-05-16T10:42:34;6.72;;;1.40;;
23608;SDS011;11982;50.810;4.442;2023-05-16T10:45:18;7.40;;;1.73;;
23608;SDS011;11982;50.810;4.442;2023-05-16T10:47:57;6.90;;;1.50;;
23608;SDS011;11982;50.810;4.442;2023-05-16T10:50:36;9.77;;;1.70;;
23608;SDS011;11982;50.810;4.442;2023-05-16T11:06:25;10.20;;;1.50;;
23608;SDS011;11982;50.810;4.442;2023-05-16T11:14:39;8.10;;;1.30;;
23608;SDS011;11982;50.810;4.442;2023-05-16T11:17:12;8.13;;;1.52;;
23608;SDS011;11982;50.810;4.442;2023-05-16T11:19:49;7.90;;;1.50;;
23608;SDS011;11982;50.810;4.442;2023-05-16T11:25:02;7.13;;;1.55;;
23608;SDS011;11982;50.810;4.442;2023-05-16T11:29:57;4.90;;;1.48;;
23608;SDS011;11982;50.810;4.442;2023-05-16T11:32:30;10.88;;;1.67;;
23608;SDS011;11982;50.810;4.442;2023-05-16T11:35:00;8.55;;;1.58;;
23608;SDS011;11982;50.810;4.442;2023-05-16T11:37:29;5.68;;;1.15;;
23608;SDS011;11982;50.810;4.442;2023-05-16T11:40:01;7.63;;;1.48;;
23608;SDS011;11982;50.810;4.442;2023-05-16T11:42:33;6.38;;;1.50;;
23608;SDS011;11982;50.810;4.442;2023-05-16T11:45:06;7.63;;;1.77;;
23608;SDS011;11982;50.810;4.442;2023-05-16T11:47:37;11.98;;;2.00;;
23608;SDS011;11982;50.810;4.442;2023-05-16T11:50:05;11.35;;;1.90;;
23608;SDS011;11982;50.810;4.442;2023-05-16T11:52:51;8.68;;;1.35;;
23608;SDS011;11982;50.810;4.442;2023-05-16T11:55:21;5.35;;;1.15;;
23608;SDS011;11982;50.810;4.442;2023-05-16T11:57:53;7.47;;;1.10;;
23608;SDS011;11982;50.810;4.442;2023-05-16T12:00:20;12.40;;;1.70;;
23608;SDS011;11982;50.810;4.442;2023-05-16T12:02:48;11.88;;;1.85;;
23608;SDS011;11982;50.810;4.442;2023-05-16T12:05:14;8.68;;;1.60;;
23608;SDS011;11982;50.810;4.442;2023-05-16T12:07:42;3.88;;;1.17;;
23608;SDS011;11982;50.810;4.442;2023-05-16T12:10:09;9.88;;;1.70;;
23608;SDS011;11982;50.810;4.442;2023-05-16T12:12:36;9.10;;;1.98;;
23608;SDS011;11982;50.810;4.442;2023-05-16T12:15:04;13.30;;;1.83;;
23608;SDS011;11982;50.810;4.442;2023-05-16T12:17:31;6.68;;;1.52;;
23608;SDS011;11982;50.810;4.442;2023-05-16T12:19:58;5.07;;;1.40;;
23608;SDS011;11982;50.810;4.442;2023-05-16T12:22:24;13.82;;;2.15;;
23608;SDS011;11982;50.810;4.442;2023-05-16T12:24:50;11.48;;;2.30;;
23608;SDS011;11982;50.810;4.442;2023-05-16T12:27:23;10.15;;;1.65;;
23608;SDS011;11982;50.810;4.442;2023-05-16T12:32:19;10.68;;;2.13;;
23608;SDS011;11982;50.810;4.442;2023-05-16T12:34:49;6.25;;;1.73;;
23608;SDS011;11982;50.810;4.442;2023-05-16T12:37:20;7.22;;;1.48;;
23608;SDS011;11982;50.810;4.442;2023-05-16T12:39:46;7.78;;;1.40;;
23608;SDS011;11982;50.810;4.442;2023-05-16T12:42:12;10.60;;;1.80;;
23608;SDS011;11982;50.810;4.442;2023-05-16T12:44:38;8.63;;;1.42;;
23608;SDS011;11982;50.810;4.442;2023-05-16T12:47:13;7.55;;;1.60;;
23608;SDS011;11982;50.810;4.442;2023-05-16T12:49:43;7.75;;;1.48;;
23608;SDS011;11982;50.810;4.442;2023-05-16T12:52:19;8.05;;;1.50;;
23608;SDS011;11982;50.810;4.442;2023-05-16T12:54:45;8.40;;;1.90;;
23608;SDS011;11982;50.810;4.442;2023-05-16T12:57:12;7.95;;;1.65;;
23608;SDS011;11982;50.810;4.442;2023-05-16T12:59:38;7.32;;;1.20;;
23608;SDS011;11982;50.810;4.442;2023-05-16T13:02:03;5.75;;;1.40;;
23608;SDS011;11982;50.810;4.442;2023-05-16T13:04:29;9.85;;;2.10;;
23608;SDS011;11982;50.810;4.442;2023-05-16T13:06:55;10.20;;;1.58;;
23608;SDS011;11982;50.810;4.442;2023-05-16T13:09:21;5.15;;;1.17;;
23608;SDS011;11982;50.810;4.442;2023-05-16T13:11:47;5.95;;;1.20;;
23608;SDS011;11982;50.810;4.442;2023-05-16T13:14:14;8.70;;;1.85;;
23608;SDS011;11982;50.810;4.442;2023-05-16T13:16:42;6.60;;;1.38;;
23608;SDS011;11982;50.810;4.442;2023-05-16T13:19:08;4.63;;;1.30;;
23608;SDS011;11982;50.810;4.442;2023-05-16T13:21:34;5.32;;;1.30;;
23608;SDS011;11982;50.810;4.442;2023-05-16T13:24:00;8.13;;;1.40;;
23608;SDS011;11982;50.810;4.442;2023-05-16T13:26:26;6.32;;;1.85;;
23608;SDS011;11982;50.810;4.442;2023-05-16T13:28:52;7.13;;;1.48;;
23608;SDS011;11982;50.810;4.442;2023-05-16T13:31:19;6.85;;;1.52;;
23608;SDS011;11982;50.810;4.442;2023-05-16T13:33:46;4.82;;;1.33;;
23608;SDS011;11982;50.810;4.442;2023-05-16T13:36:12;7.13;;;1.60;;
23608;SDS011;11982;50.810;4.442;2023-05-16T13:38:38;6.28;;;1.15;;
23608;SDS011;11982;50.810;4.442;2023-05-16T13:41:04;10.77;;;1.98;;
23608;SDS011;11982;50.810;4.442;2023-05-16T13:43:30;7.70;;;1.42;;
23608;SDS011;11982;50.810;4.442;2023-05-16T13:45:56;12.63;;;2.08;;
23608;SDS011;11982;50.810;4.442;2023-05-16T13:48:21;8.77;;;1.63;;
23608;SDS011;11982;50.810;4.442;2023-05-16T13:50:47;7.13;;;1.73;;
23608;SDS011;11982;50.810;4.442;2023-05-16T13:53:13;9.85;;;1.42;;
23608;SDS011;11982;50.810;4.442;2023-05-16T13:55:38;4.15;;;1.27;;
23608;SDS011;11982;50.810;4.442;2023-05-16T13:58:04;4.38;;;1.38;;
23608;SDS011;11982;50.810;4.442;2023-05-16T14:00:30;5.80;;;1.33;;
23608;SDS011;11982;50.810;4.442;2023-05-16T14:02:56;4.82;;;1.40;;
23608;SDS011;11982;50.810;4.442;2023-05-16T14:05:21;5.53;;;1.77;;
23608;SDS011;11982;50.810;4.442;2023-05-16T14:07:47;5.95;;;1.40;;
23608;SDS011;11982;50.810;4.442;2023-05-16T14:10:13;4.25;;;1.30;;
23608;SDS011;11982;50.810;4.442;2023-05-16T14:12:38;6.40;;;1.25;;
23608;SDS011;11982;50.810;4.442;2023-05-16T14:15:04;4.43;;;1.33;;
23608;SDS011;11982;50.810;4.442;2023-05-16T14:17:31;7.82;;;1.80;;
23608;SDS011;11982;50.810;4.442;2023-05-16T14:19:57;8.13;;;1.45;;
23608;SDS011;11982;50.810;4.442;2023-05-16T14:22:22;8.45;;;1.80;;
23608;SDS011;11982;50.810;4.442;2023-05-16T14:24:48;5.97;;;1.52;;
23608;SDS011;11982;50.810;4.442;2023-05-16T14:27:14;7.95;;;1.35;;
23608;SDS011;11982;50.810;4.442;2023-05-16T14:29:40;4.65;;;1.40;;
23608;SDS011;11982;50.810;4.442;2023-05-16T14:32:06;4.60;;;1.55;;
23608;SDS011;11982;50.810;4.442;2023-05-16T14:34:35;6.63;;;1.13;;
23608;SDS011;11982;50.810;4.442;2023-05-16T14:37:00;5.30;;;1.50;;
23608;SDS011;11982;50.810;4.442;2023-05-16T14:39:26;6.60;;;1.60;;
23608;SDS011;11982;50.810;4.442;2023-05-16T14:41:52;5.93;;;1.27;;
23608;SDS011;11982;50.810;4.442;2023-05-16T14:44:17;5.25;;;1.15;;
23608;SDS011;11982;50.810;4.442;2023-05-16T14:46:45;8.70;;;1.30;;
23608;SDS011;11982;50.810;4.442;2023-05-16T14:49:11;2.63;;;1.10;;
23608;SDS011;11982;50.810;4.442;2023-05-16T14:51:37;4.88;;;1.05;;
23608;SDS011;11982;50.810;4.442;2023-05-16T14:54:03;3.83;;;1.23;;
23608;SDS011;11982;50.810;4.442;2023-05-16T14:56:29;5.43;;;1.45;;
23608;SDS011;11982;50.810;4.442;2023-05-16T14:58:56;7.85;;;1.33;;
23608;SDS011;11982;50.810;4.442;2023-05-16T15:01:21;7.05;;;1.30;;
23608;SDS011;11982;50.810;4.442;2023-05-16T15:03:47;5.15;;;1.35;;
23608;SDS011;11982;50.810;4.442;2023-05-16T15:06:13;4.15;;;1.13;;
23608;SDS011;11982;50.810;4.442;2023-05-16T15:08:38;9.68;;;1.10;;
23608;SDS011;11982;50.810;4.442;2023-05-16T15:11:04;7.13;;;1.35;;
23608;SDS011;11982;50.810;4.442;2023-05-16T15:13:30;4.78;;;1.25;;
23608;SDS011;11982;50.810;4.442;2023-05-16T15:15:55;10.18;;;1.40;;
23608;SDS011;11982;50.810;4.442;2023-05-16T15:18:22;6.20;;;1.45;;
23608;SDS011;11982;50.810;4.442;2023-05-16T15:20:48;7.00;;;1.48;;
23608;SDS011;11982;50.810;4.442;2023-05-16T15:23:16;7.75;;;1.10;;